Time;durP1;ratioP1;P1;durP2;ratioP2;P2;SDS_P1;SDS_P2;PMS_P1;PMS_P2;Temp;Humidity;BMP_temperature;BMP_pressure;BME280_temperature;BME280_humidity;BME280_pressure;Samples;Min_cycle;Max_cycle;Signal;HPM_P1;HPM_P2
2022/04/21 00:00:17;;;;;;;7.27;2.80;;;;;;;12.47;33.33;99068.84;4932685;29;20583;-69
2022/04/21 00:02:44;;;;;;;13.00;2.83;;;;;;;12.43;33.74;99065.09;4930772;29;20327;-70
2022/04/21 00:05:12;;;;;;;9.35;2.80;;;;;;;12.46;33.60;99067.22;4930200;29;20063;-70
2022/04/21 00:07:38;;;;;;;8.77;2.75;;;;;;;12.50;33.52;99072.09;4916065;29;20055;-70
2022/04/21 00:10:07;;;;;;;19.60;3.38;;;;;;;12.37;33.59;99060.03;4933159;29;20112;-70
2022/04/21 00:12:34;;;;;;;7.38;2.50;;;;;;;12.39;33.62;99066.00;4916099;29;20055;-69
2022/04/21 00:15:01;;;;;;;13.80;3.00;;;;;;;12.41;33.74;99056.38;4932058;29;20122;-68
2022/04/21 00:17:27;;;;;;;11.52;2.65;;;;;;;12.51;33.67;99068.22;4906972;29;20044;-68
2022/04/21 00:19:53;;;;;;;16.20;2.67;;;;;;;12.44;33.60;99061.25;4932707;29;20067;-70
2022/04/21 00:25:05;;;;;;;7.60;2.53;;;;;;;12.42;33.66;99060.75;4934089;29;20051;-70
2022/04/21 00:27:37;;;;;;;6.85;2.70;;;;;;;12.44;33.67;99066.72;4927990;29;20056;-70
2022/04/21 00:30:06;;;;;;;9.52;2.95;;;;;;;12.41;33.74;99069.25;4920101;29;20521;-70
2022/04/21 00:32:32;;;;;;;9.98;2.80;;;;;;;12.35;33.77;99057.56;4891978;29;20553;-70
2022/04/21 00:34:59;;;;;;;12.70;3.10;;;;;;;12.45;33.87;99064.78;4914681;29;20197;-70
2022/04/21 00:37:26;;;;;;;7.13;2.70;;;;;;;12.34;33.91;99062.25;4932304;29;20056;-68
2022/04/21 00:39:52;;;;;;;11.15;2.85;;;;;;;12.37;33.80;99077.25;4932684;29;20529;-71
2022/04/21 00:42:18;;;;;;;9.40;3.30;;;;;;;12.31;34.25;99053.81;4931131;29;20058;-69
2022/04/21 00:44:44;;;;;;;13.18;3.00;;;;;;;12.33;34.09;99060.63;4934273;29;20077;-70
2022/04/21 00:47:11;;;;;;;10.00;2.92;;;;;;;12.25;34.17;99069.56;4933521;29;20063;-70
2022/04/21 00:49:38;;;;;;;8.25;2.72;;;;;;;12.28;34.08;99055.25;4932647;29;20048;-70
2022/04/21 00:52:04;;;;;;;8.17;3.20;;;;;;;12.26;34.39;99057.47;4917290;29;20464;-70
2022/04/21 00:54:33;;;;;;;13.32;2.90;;;;;;;12.24;34.38;99062.44;4933070;29;20146;-71
2022/04/21 00:57:00;;;;;;;9.13;2.72;;;;;;;12.20;34.42;99075.94;4933585;29;20071;-71
2022/04/21 00:59:27;;;;;;;10.70;2.88;;;;;;;12.06;34.42;99061.41;4933502;29;20150;-71
2022/04/21 01:04:39;;;;;;;12.35;2.72;;;;;;;12.15;34.78;99059.59;4931985;29;20059;-71
2022/04/21 01:07:11;;;;;;;9.90;3.33;;;;;;;12.15;34.71;99075.22;4931991;29;20290;-70
2022/04/21 01:09:38;;;;;;;11.52;3.55;;;;;;;12.12;34.83;99078.56;4935139;29;20051;-70
2022/04/21 01:12:09;;;;;;;11.57;2.88;;;;;;;12.04;35.17;99074.59;4934812;29;20402;-69
2022/04/21 01:14:38;;;;;;;9.15;3.17;;;;;;;12.11;34.85;99066.00;4915308;29;20060;-71
2022/04/21 01:17:05;;;;;;;10.48;3.70;;;;;;;12.13;34.90;99071.97;4933628;29;20063;-69
2022/04/21 01:19:34;;;;;;;10.00;2.88;;;;;;;12.03;35.03;99062.03;4935496;29;20060;-70
2022/04/21 01:22:02;;;;;;;7.93;2.85;;;;;;;12.04;35.19;99064.47;4932315;29;20058;-71
2022/04/21 01:24:28;;;;;;;9.40;3.70;;;;;;;12.03;35.35;99067.50;4931915;29;20056;-71
2022/04/21 01:26:55;;;;;;;9.00;3.17;;;;;;;12.02;35.24;99072.19;4933664;29;20074;-70
2022/04/21 01:29:21;;;;;;;;;;;;;;;11.98;35.37;99062.09;4935110;29;20063;-70
2022/04/21 01:31:48;;;;;;;11.55;2.75;;;;;;;11.97;35.26;99065.94;4932465;29;20011;-70
2022/04/21 01:34:14;;;;;;;7.47;2.60;;;;;;;11.94;35.35;99055.56;4926667;29;20078;-70
2022/04/21 01:42:15;;;;;;;13.40;2.90;;;;;;;11.87;35.83;99061.47;4930780;29;20140;-70
2022/04/21 01:44:43;;;;;;;7.95;2.60;;;;;;;11.77;35.86;99052.31;4930474;29;20191;-70
2022/04/21 01:47:09;;;;;;;;;;;;;;;11.81;36.09;99060.75;4933237;29;20154;-69
2022/04/21 01:49:35;;;;;;;7.25;2.47;;;;;;;11.68;36.26;99067.00;4930579;29;20037;-71
2022/04/21 01:52:02;;;;;;;11.73;3.55;;;;;;;11.72;36.40;99057.06;4931479;29;20084;-69
2022/04/21 01:54:29;;;;;;;8.38;2.50;;;;;;;11.70;36.56;99051.09;4914300;29;20056;-70
2022/04/21 01:56:55;;;;;;;11.38;2.70;;;;;;;11.73;36.65;99058.69;4933026;29;20091;-71
2022/04/21 01:59:21;;;;;;;9.90;2.70;;;;;;;11.72;36.48;99068.03;4932729;29;20138;-70
2022/04/21 02:01:47;;;;;;;11.73;2.85;;;;;;;11.65;36.63;99042.97;4932302;29;20067;-70
2022/04/21 02:04:13;;;;;;;14.27;3.00;;;;;;;11.66;37.03;99059.06;4917175;29;20694;-71
2022/04/21 02:06:40;;;;;;;6.90;2.58;;;;;;;11.65;37.21;99048.44;4938283;29;20087;-72
2022/04/21 02:09:06;;;;;;;12.77;2.95;;;;;;;11.60;37.34;99060.28;4918806;29;20444;-70
2022/04/21 02:11:34;;;;;;;10.25;2.97;;;;;;;11.61;37.37;99054.50;4936030;29;20084;-69
2022/04/21 02:14:00;;;;;;;6.70;2.47;;;;;;;11.56;37.36;99051.06;4937509;29;20056;-70
2022/04/21 02:16:26;;;;;;;8.25;2.58;;;;;;;11.62;37.48;99055.31;4916448;29;20472;-70
2022/04/21 02:18:53;;;;;;;9.73;2.63;;;;;;;11.55;37.50;99047.50;4934631;29;20063;-70
2022/04/21 02:21:19;;;;;;;12.27;2.97;;;;;;;11.49;37.61;99035.81;4886790;29;20098;-69
2022/04/21 02:23:45;;;;;;;10.55;3.50;;;;;;;11.52;37.83;99041.78;4932566;29;22110;-70
2022/04/21 02:26:12;;;;;;;7.40;2.50;;;;;;;11.44;37.95;99046.03;4922239;29;20146;-69
2022/04/21 02:28:39;;;;;;;12.88;3.00;;;;;;;11.45;38.17;99051.22;4935056;29;20505;-69
2022/04/21 02:31:05;;;;;;;10.55;3.50;;;;;;;11.41;38.29;99041.97;4918303;29;20090;-69
2022/04/21 02:33:31;;;;;;;14.50;2.65;;;;;;;11.44;38.36;99060.53;4936148;29;20567;-70
2022/04/21 02:35:57;;;;;;;7.78;2.47;;;;;;;11.43;38.39;99044.41;4933693;29;20067;-70
2022/04/21 02:38:23;;;;;;;6.35;2.25;;;;;;;11.40;38.57;99047.75;4933291;29;20062;-69
2022/04/21 02:40:50;;;;;;;7.75;2.53;;;;;;;11.38;38.56;99048.03;4934294;29;20512;-70
2022/04/21 02:43:17;;;;;;;8.07;2.47;;;;;;;11.39;38.65;99035.19;4900935;29;20055;-71
2022/04/21 02:45:44;;;;;;;15.55;2.90;;;;;;;11.39;38.76;99052.41;4931132;29;20063;-71
2022/04/21 02:48:10;;;;;;;9.65;2.75;;;;;;;11.38;38.87;99058.97;4930360;29;20063;-70
2022/04/21 02:50:36;;;;;;;10.75;2.97;;;;;;;11.35;38.84;99051.38;4917819;29;20126;-71
2022/04/21 02:53:03;;;;;;;8.60;2.40;;;;;;;11.26;38.98;99048.50;4929006;29;20055;-70
2022/04/21 02:58:14;;;;;;;8.93;2.90;;;;;;;11.27;39.08;99049.31;4934431;29;20468;-71
2022/04/21 03:00:41;;;;;;;10.93;2.58;;;;;;;11.25;39.03;99043.34;4934954;29;20058;-69
2022/04/21 03:03:08;;;;;;;9.50;2.63;;;;;;;11.23;39.05;99040.06;4934930;29;20460;-71
2022/04/21 03:05:34;;;;;;;9.50;3.00;;;;;;;11.21;39.25;99041.19;4910093;29;20509;-70
2022/04/21 03:08:00;;;;;;;7.57;2.30;;;;;;;11.18;39.46;99051.94;4901811;29;20115;-71
2022/04/21 03:10:27;;;;;;;9.57;2.42;;;;;;;11.15;39.41;99049.75;4934463;29;20106;-71
2022/04/21 03:12:53;;;;;;;7.45;2.55;;;;;;;11.23;39.11;99065.53;4949615;29;20071;-71
2022/04/21 03:15:19;;;;;;;13.43;2.70;;;;;;;11.11;39.48;99071.44;4926049;29;20066;-70
2022/04/21 03:17:45;;;;;;;6.80;2.40;;;;;;;11.13;39.32;99069.22;4932594;29;20060;-71
2022/04/21 03:24:19;;;;;;;8.52;2.75;;;;;;;11.27;39.25;99080.22;4936816;29;20047;-70
2022/04/21 03:25:46;;;;;;;7.18;2.47;;;;;;;11.24;39.36;99086.31;4904272;29;20106;-70
2022/04/21 03:28:12;;;;;;;8.15;2.72;;;;;;;11.33;39.50;99090.00;4936792;29;20059;-70
2022/04/21 03:30:38;;;;;;;8.73;2.70;;;;;;;11.25;39.46;99076.97;4916626;29;20150;-70
2022/04/21 03:33:05;;;;;;;19.13;3.47;;;;;;;11.26;39.81;99083.28;4927716;29;20070;-68
2022/04/21 03:35:33;;;;;;;8.73;2.92;;;;;;;11.32;39.65;99084.81;4917166;29;20481;-69
2022/04/21 03:37:59;;;;;;;7.68;2.70;;;;;;;11.28;39.73;99089.25;4932909;29;20047;-70
2022/04/21 03:40:26;;;;;;;9.50;3.47;;;;;;;11.24;39.64;99078.09;4934430;29;20060;-69
2022/04/21 03:42:52;;;;;;;10.65;3.63;;;;;;;11.15;39.67;99064.28;4921006;29;20465;-69
2022/04/21 03:45:18;;;;;;;11.70;4.65;;;;;;;11.23;39.84;99090.16;4932270;29;20138;-69
2022/04/21 03:47:46;;;;;;;17.00;4.35;;;;;;;11.21;39.84;99089.63;4933699;29;20212;-68
2022/04/21 03:50:12;;;;;;;12.63;3.70;;;;;;;11.23;39.79;99086.59;4917065;29;20429;-68
2022/04/21 03:52:39;;;;;;;10.00;3.67;;;;;;;11.28;39.67;99081.06;4928737;29;20066;-69
2022/04/21 03:55:06;;;;;;;6.80;2.53;;;;;;;11.32;39.70;99082.91;4933139;29;20055;-69
2022/04/21 03:57:32;;;;;;;6.97;2.60;;;;;;;11.34;39.76;99069.72;4936376;29;20055;-69
2022/04/21 03:59:59;;;;;;;6.53;2.38;;;;;;;11.32;39.74;99071.13;4933680;29;20459;-69
2022/04/21 04:02:24;;;;;;;10.18;2.80;;;;;;;11.32;39.59;99069.22;4930839;29;20060;-70
2022/04/21 04:04:51;;;;;;;8.48;2.55;;;;;;;11.33;39.74;99056.34;4905238;29;20088;-69
2022/04/21 04:12:48;;;;;;;9.52;2.40;;;;;;;11.31;39.71;99055.81;4931828;29;20062;-70
2022/04/21 04:15:14;;;;;;;6.82;2.30;;;;;;;11.23;40.10;99057.31;4917241;29;20063;-70
2022/04/21 04:17:40;;;;;;;8.68;2.50;;;;;;;11.24;40.51;99047.16;4931278;29;20468;-71
2022/04/21 04:20:08;;;;;;;7.07;2.50;;;;;;;11.22;40.50;99061.16;4932220;29;20067;-70
2022/04/21 04:22:35;;;;;;;9.48;2.40;;;;;;;11.22;40.65;99044.75;4914795;29;20208;-69
2022/04/21 04:25:02;;;;;;;9.43;2.70;;;;;;;11.20;40.84;99069.66;4931682;29;20568;-71
2022/04/21 04:27:29;;;;;;;8.95;2.60;;;;;;;11.19;41.06;99057.09;4932046;29;20060;-69
2022/04/21 04:29:55;;;;;;;8.70;2.58;;;;;;;11.10;41.24;99055.31;4917361;29;20063;-70
2022/04/21 04:32:21;;;;;;;12.40;2.95;;;;;;;11.03;41.79;99051.03;4931699;29;20102;-69
2022/04/21 04:34:47;;;;;;;10.45;2.42;;;;;;;11.02;42.23;99048.59;4930533;29;20410;-69
2022/04/21 04:37:13;;;;;;;10.15;2.70;;;;;;;10.99;42.70;99057.41;4932016;29;20060;-68
2022/04/21 04:39:39;;;;;;;8.07;2.88;;;;;;;11.04;42.58;99063.63;4932007;29;20054;-70
2022/04/21 04:42:16;;;;;;;11.25;3.58;;;;;;;10.96;42.47;99056.06;4919543;29;20055;-69
2022/04/21 04:44:43;;;;;;;10.75;2.83;;;;;;;11.06;42.05;99072.34;4931668;29;20055;-68
2022/04/21 04:47:09;;;;;;;10.10;3.20;;;;;;;11.03;41.93;99052.97;4928539;29;20067;-68
2022/04/21 04:49:35;;;;;;;8.45;2.58;;;;;;;11.11;41.78;99062.41;4932702;29;20138;-69
2022/04/21 04:52:03;;;;;;;8.48;2.67;;;;;;;11.03;42.07;99053.78;4931659;29;20067;-69
2022/04/21 04:54:29;;;;;;;12.23;3.17;;;;;;;11.01;42.01;99058.75;4915970;29;20048;-68
2022/04/21 04:56:57;;;;;;;8.57;2.40;;;;;;;11.01;42.04;99066.94;4914039;29;20078;-68
2022/04/21 04:59:27;;;;;;;8.45;2.72;;;;;;;10.99;41.72;99074.59;4933140;29;20521;-68
2022/04/21 05:01:55;;;;;;;8.70;2.30;;;;;;;10.96;41.89;99068.94;4931490;29;20063;-73
2022/04/21 05:04:24;;;;;;;8.60;2.60;;;;;;;10.98;41.73;99078.44;4930297;29;20051;-66
2022/04/21 05:06:52;;;;;;;8.68;2.42;;;;;;;11.00;41.72;99072.69;4952503;29;20078;-68
2022/04/21 05:09:21;;;;;;;6.95;2.63;;;;;;;11.05;41.89;99067.16;4927008;29;20103;-66
2022/04/21 05:11:53;;;;;;;7.22;2.40;;;;;;;11.02;41.78;99084.16;4931931;29;20143;-70
2022/04/21 05:14:20;;;;;;;12.93;2.55;;;;;;;10.99;42.05;99095.69;4922031;29;20047;-71
2022/04/21 05:16:47;;;;;;;7.63;2.40;;;;;;;10.91;42.45;99094.44;4929226;29;20504;-67
2022/04/21 05:19:15;;;;;;;8.45;3.00;;;;;;;11.03;42.06;99094.81;4914095;29;20619;-69
2022/04/21 05:21:43;;;;;;;11.20;3.55;;;;;;;11.03;41.74;99104.94;4914648;29;20056;-69
2022/04/21 05:24:10;;;;;;;10.75;3.50;;;;;;;11.03;41.76;99100.28;4930925;29;20064;-70
2022/04/21 05:26:38;;;;;;;11.10;3.58;;;;;;;11.09;41.73;99116.63;4932605;29;20500;-70
2022/04/21 05:31:54;;;;;;;11.10;3.83;;;;;;;10.96;42.33;99123.63;4932179;29;20055;-70
2022/04/21 05:34:22;;;;;;;9.20;2.75;;;;;;;10.98;42.84;99129.63;4930466;29;20452;-69
2022/04/21 05:36:48;;;;;;;15.82;3.03;;;;;;;10.87;43.66;99115.28;4930785;29;20607;-68
2022/04/21 05:39:15;;;;;;;10.67;3.03;;;;;;;10.87;44.33;99123.47;4934512;29;20060;-69
2022/04/21 05:41:43;;;;;;;10.25;3.15;;;;;;;10.91;44.52;99140.94;4933225;29;20319;-70
2022/04/21 05:44:11;;;;;;;9.65;3.10;;;;;;;10.95;44.97;99138.44;4933481;29;20113;-70
2022/04/21 05:46:37;;;;;;;9.63;2.92;;;;;;;10.87;45.36;99131.69;4891423;29;20059;-69
2022/04/21 05:49:06;;;;;;;10.90;2.80;;;;;;;10.66;45.90;99133.84;4936409;29;20070;-69
2022/04/21 05:51:32;;;;;;;7.75;2.35;;;;;;;10.86;45.63;99136.31;4935951;29;20051;-69
2022/04/21 05:54:04;;;;;;;13.88;2.80;;;;;;;10.90;45.91;99161.97;4903312;29;20052;-70
2022/04/21 05:56:31;;;;;;;9.75;3.13;;;;;;;10.91;46.11;99158.13;4901228;29;20055;-70
2022/04/21 05:58:57;;;;;;;11.73;4.00;;;;;;;10.89;46.47;99168.56;4934645;29;20198;-71
2022/04/21 06:01:24;;;;;;;13.82;4.95;;;;;;;10.80;47.11;99156.66;4918375;29;20083;-69
2022/04/21 06:03:52;;;;;;;20.05;4.82;;;;;;;10.73;47.33;99161.66;4920854;29;20085;-68
2022/04/21 06:06:20;;;;;;;20.52;4.63;;;;;;;10.79;47.38;99168.69;4935944;29;20404;-68
2022/04/21 06:08:46;;;;;;;10.90;4.13;;;;;;;10.74;47.37;99161.34;4933484;29;20455;-70
2022/04/21 06:11:13;;;;;;;12.55;4.35;;;;;;;10.78;47.66;99175.28;4935142;29;20484;-68
2022/04/21 06:13:42;;;;;;;17.02;4.78;;;;;;;10.75;47.91;99164.91;4934284;29;20047;-71
2022/04/21 06:16:09;;;;;;;15.35;5.18;;;;;;;10.76;47.84;99180.19;4916839;29;20467;-70
2022/04/21 06:18:36;;;;;;;12.23;4.57;;;;;;;10.80;47.84;99181.25;4917945;29;20051;-69
2022/04/21 06:21:03;;;;;;;12.30;4.50;;;;;;;10.75;47.94;99184.03;4929086;29;20051;-69
2022/04/21 06:23:33;;;;;;;12.90;3.60;;;;;;;10.67;48.20;99193.69;4934681;29;20138;-68
2022/04/21 06:26:00;;;;;;;14.40;4.53;;;;;;;10.66;48.13;99183.88;4910282;29;20052;-66
2022/04/21 06:28:27;;;;;;;12.20;4.57;;;;;;;10.68;48.29;99195.31;4917051;29;20052;-67
2022/04/21 06:30:54;;;;;;;12.70;3.67;;;;;;;10.68;47.82;99187.13;4927068;29;20125;-69
2022/04/21 06:33:21;;;;;;;10.83;3.53;;;;;;;10.73;47.85;99195.28;4933980;29;20043;-67
2022/04/21 06:35:47;;;;;;;10.10;3.75;;;;;;;10.57;48.28;99197.34;4932513;29;20044;-70
2022/04/21 06:38:14;;;;;;;9.15;3.10;;;;;;;10.57;48.20;99205.56;4935034;29;20052;-70
2022/04/21 06:40:41;;;;;;;8.03;2.97;;;;;;;10.62;48.08;99212.91;4917660;29;20062;-70
2022/04/21 06:48:41;;;;;;;10.52;4.00;;;;;;;10.66;47.93;99210.41;4933425;29;20055;-70
2022/04/21 06:51:07;;;;;;;9.15;3.10;;;;;;;10.74;48.08;99213.31;4932947;29;20150;-69
2022/04/21 06:53:34;;;;;;;10.00;3.45;;;;;;;10.68;48.61;99222.66;4933845;29;20510;-70
2022/04/21 06:56:01;;;;;;;;;;;;;;;10.67;48.67;99222.97;4900632;29;20079;-69
2022/04/21 06:58:29;;;;;;;11.13;4.00;;;;;;;10.66;48.53;99227.59;4934403;29;20418;-69
2022/04/21 07:00:55;;;;;;;9.80;3.80;;;;;;;10.68;48.88;99230.88;4933244;29;20167;-70
2022/04/21 07:03:21;;;;;;;10.80;3.60;;;;;;;10.63;49.12;99226.28;4929940;29;20060;-69
2022/04/21 07:05:51;;;;;;;9.52;3.55;;;;;;;10.50;49.25;99208.63;4936468;29;20102;-70
2022/04/21 07:08:17;;;;;;;11.35;3.60;;;;;;;10.64;49.32;99230.66;4934413;29;20064;-70
2022/04/21 07:10:44;;;;;;;11.63;4.07;;;;;;;10.61;49.37;99230.41;4933436;29;20062;-69
2022/04/21 07:13:11;;;;;;;9.25;3.17;;;;;;;10.65;49.41;99225.97;4933811;29;20059;-69
2022/04/21 07:15:37;;;;;;;11.07;4.00;;;;;;;10.58;49.84;99233.72;4918023;29;20512;-69
2022/04/21 07:18:04;;;;;;;9.98;3.50;;;;;;;10.60;49.57;99236.97;4933564;29;20059;-68
2022/04/21 07:20:30;;;;;;;10.73;3.60;;;;;;;10.64;49.92;99240.75;4919980;29;20078;-68
2022/04/21 07:22:56;;;;;;;10.85;4.40;;;;;;;10.53;50.23;99244.69;4934508;29;20048;-68
2022/04/21 07:25:23;;;;;;;12.80;4.03;;;;;;;10.53;50.35;99244.69;4932945;29;20059;-68
2022/04/21 07:27:50;;;;;;;12.13;3.55;;;;;;;10.54;50.36;99236.22;4932702;29;20059;-67
2022/04/21 07:30:17;;;;;;;13.68;3.90;;;;;;;10.63;50.25;99250.88;4931620;29;20066;-69
2022/04/21 07:32:44;;;;;;;11.00;4.00;;;;;;;10.64;50.41;99254.41;4931812;29;20059;-66
2022/04/21 07:35:10;;;;;;;13.20;3.67;;;;;;;10.62;50.15;99262.09;4932973;29;20264;-66
2022/04/21 07:37:37;;;;;;;10.47;3.40;;;;;;;10.73;50.10;99269.09;4933309;29;20272;-66
2022/04/21 07:40:05;;;;;;;10.98;3.85;;;;;;;10.64;50.33;99257.16;4929208;29;20052;-66
2022/04/21 07:42:32;;;;;;;8.93;3.25;;;;;;;10.72;50.22;99261.19;4910330;29;20075;-67
2022/04/21 07:44:59;;;;;;;10.35;3.30;;;;;;;10.76;50.31;99270.44;4932342;29;20052;-66
2022/04/21 07:47:26;;;;;;;9.95;3.05;;;;;;;10.73;50.26;99271.00;4933631;29;20056;-65
2022/04/21 07:49:52;;;;;;;8.13;3.25;;;;;;;10.66;50.32;99273.28;4912527;29;20115;-67
2022/04/21 07:55:07;;;;;;;13.60;3.40;;;;;;;10.67;50.44;99267.50;4931196;29;20167;-67
2022/04/21 07:57:33;;;;;;;9.30;3.20;;;;;;;10.60;50.76;99284.25;4916175;29;20055;-76
2022/04/21 08:00:00;;;;;;;7.50;3.10;;;;;;;10.58;50.77;99282.94;4932035;29;20047;-75
2022/04/21 08:02:26;;;;;;;11.73;3.70;;;;;;;10.63;50.63;99280.13;4930137;29;20055;-74
2022/04/21 08:04:53;;;;;;;8.73;3.37;;;;;;;10.62;50.56;99279.34;4932310;29;20143;-73
2022/04/21 08:07:19;;;;;;;8.95;3.25;;;;;;;10.70;50.74;99297.03;4916070;29;20459;-71
2022/04/21 08:09:45;;;;;;;10.43;3.60;;;;;;;10.66;50.97;99300.63;4920874;29;20608;-72
2022/04/21 08:12:11;;;;;;;8.32;3.40;;;;;;;10.65;51.27;99305.25;4898151;29;20469;-72
2022/04/21 08:14:38;;;;;;;11.50;3.90;;;;;;;10.59;51.62;99296.28;4915037;29;20176;-73
2022/04/21 08:17:05;;;;;;;10.68;3.70;;;;;;;10.52;52.06;99304.03;4928740;29;20079;-73
2022/04/21 08:19:32;;;;;;;;;;;;;;;10.55;51.99;99299.91;4930407;29;20087;-70
2022/04/21 08:21:58;;;;;;;9.23;3.35;;;;;;;10.54;51.91;99320.94;4933164;29;19927;-70
2022/04/21 08:32:46;;;;;;;9.90;3.20;;;;;;;10.36;53.33;99315.03;4937178;29;20086;-70
2022/04/21 08:35:13;;;;;;;13.82;3.17;;;;;;;10.42;53.33;99323.22;4931044;29;20072;-70
2022/04/21 08:37:41;;;;;;;8.07;3.00;;;;;;;10.43;53.29;99313.91;4931964;29;20476;-70
2022/04/21 08:40:10;;;;;;;16.17;3.33;;;;;;;10.35;53.74;99334.44;4933484;29;20508;-70
2022/04/21 08:42:40;;;;;;;12.18;3.08;;;;;;;10.28;53.88;99323.84;4915655;29;20052;-70
2022/04/21 08:45:07;;;;;;;11.85;3.47;;;;;;;10.25;54.02;99313.47;4913597;29;20870;-71
2022/04/21 08:47:33;;;;;;;;;;;;;;;10.36;53.70;99333.34;4932565;29;20059;-71
2022/04/21 08:50:04;;;;;;;12.30;3.38;;;;;;;10.27;53.97;99338.59;4933825;29;19930;-70
2022/04/21 08:52:32;;;;;;;8.88;2.80;;;;;;;10.25;54.16;99340.81;4926928;29;20052;-70
2022/04/21 08:54:59;;;;;;;9.70;3.20;;;;;;;10.25;54.33;99340.81;4931428;29;20063;-70
2022/04/21 08:57:25;;;;;;;7.50;2.80;;;;;;;10.24;54.24;99354.78;4924282;29;20124;-71
2022/04/21 08:59:53;;;;;;;6.72;2.25;;;;;;;10.22;54.35;99349.56;4919374;29;20052;-68
2022/04/21 09:02:19;;;;;;;9.07;3.25;;;;;;;10.23;54.43;99345.75;4930128;29;20063;-76
2022/04/21 09:04:45;;;;;;;9.77;3.47;;;;;;;10.27;54.42;99348.72;4929266;29;20055;-67
2022/04/21 09:07:17;;;;;;;11.07;3.40;;;;;;;10.25;54.76;99350.94;4932249;29;20067;-66
2022/04/21 09:10:01;;;;;;;10.55;3.05;;;;;;;10.23;54.91;99369.53;4932909;29;20548;-67
2022/04/21 09:12:27;;;;;;;8.70;3.20;;;;;;;10.15;55.07;99369.00;4934377;29;20500;-67
2022/04/21 09:14:54;;;;;;;9.23;3.03;;;;;;;10.23;55.10;99373.06;4928286;29;20091;-72
2022/04/21 09:17:20;;;;;;;7.60;2.92;;;;;;;10.23;55.13;99377.72;4938051;29;20059;-74
2022/04/21 09:19:56;;;;;;;9.63;3.22;;;;;;;10.23;55.09;99388.66;4934713;29;20062;-73
2022/04/21 09:22:22;;;;;;;10.23;3.05;;;;;;;10.25;55.25;99381.00;4929030;29;20059;-74
2022/04/21 09:24:51;;;;;;;10.88;3.20;;;;;;;10.25;55.11;99384.53;4921135;29;20056;-74
2022/04/21 09:27:18;;;;;;;8.82;3.10;;;;;;;10.36;54.82;99390.72;4936935;29;20063;-73
2022/04/21 09:29:44;;;;;;;9.27;3.25;;;;;;;10.35;54.94;99391.84;4934036;29;20484;-73
2022/04/21 09:32:10;;;;;;;11.60;3.90;;;;;;;10.34;55.29;99390.19;4937713;29;20082;-73
2022/04/21 09:34:37;;;;;;;12.68;4.22;;;;;;;10.31;55.46;99388.88;4932219;29;20058;-73
2022/04/21 09:37:07;;;;;;;9.33;3.40;;;;;;;10.36;55.20;99399.75;4935441;29;20079;-73
2022/04/21 09:39:38;;;;;;;10.60;3.70;;;;;;;10.40;55.19;99383.63;4937699;29;20047;-72
2022/04/21 09:42:05;;;;;;;9.70;2.90;;;;;;;10.46;55.17;99398.09;4935977;29;20056;-74
2022/04/21 09:47:20;;;;;;;8.40;3.17;;;;;;;10.42;54.84;99394.28;4919358;29;20058;-74
2022/04/21 09:49:46;;;;;;;9.57;3.23;;;;;;;10.34;55.49;99396.50;4936793;29;20060;-75
2022/04/21 09:52:25;;;;;;;7.63;2.85;;;;;;;10.35;55.63;99386.38;4919915;29;20059;-75
2022/04/21 09:54:51;;;;;;;8.52;2.58;;;;;;;10.43;55.29;99376.78;4938230;29;20056;-74
2022/04/21 09:57:28;;;;;;;10.23;3.13;;;;;;;10.35;55.59;99409.06;4938326;29;20062;-74
2022/04/21 09:59:57;;;;;;;9.60;2.95;;;;;;;10.35;55.59;99409.06;4937423;29;20055;-76
2022/04/21 10:02:24;;;;;;;8.30;3.00;;;;;;;10.39;55.56;99392.09;4937454;29;20454;-76
2022/04/21 10:04:50;;;;;;;9.27;3.13;;;;;;;10.38;55.36;99407.69;4938097;29;20055;-73
2022/04/21 10:07:18;;;;;;;8.77;2.97;;;;;;;10.32;55.43;99425.19;4938470;29;20056;-74
2022/04/21 10:09:45;;;;;;;8.93;3.20;;;;;;;10.21;55.77;99400.66;4938147;29;20074;-74
2022/04/21 10:12:12;;;;;;;7.80;3.28;;;;;;;10.29;55.91;99421.09;4943103;29;20146;-74
2022/04/21 10:14:39;;;;;;;9.25;3.35;;;;;;;10.24;56.03;99434.00;4944513;29;20055;-73
2022/04/21 10:17:10;;;;;;;9.95;3.55;;;;;;;10.30;55.82;99425.50;4938297;29;20639;-74
2022/04/21 10:19:36;;;;;;;9.40;3.17;;;;;;;10.33;55.77;99437.75;4938653;29;20066;-75
2022/04/21 10:22:06;;;;;;;8.30;3.17;;;;;;;10.27;56.07;99428.78;4935032;29;20052;-74
2022/04/21 10:24:34;;;;;;;10.63;3.30;;;;;;;10.27;55.87;99444.38;4934961;29;20051;-74
2022/04/21 10:27:01;;;;;;;8.40;3.00;;;;;;;10.29;56.17;99459.34;4934254;29;20071;-75
2022/04/21 10:29:28;;;;;;;11.13;2.88;;;;;;;10.27;55.62;99447.09;4932535;29;20048;-73
2022/04/21 10:31:59;;;;;;;7.80;2.70;;;;;;;10.17;55.56;99447.97;4934621;29;20047;-73
2022/04/21 10:34:31;;;;;;;8.15;2.80;;;;;;;10.24;55.86;99470.31;4916196;29;20536;-72
2022/04/21 10:37:07;;;;;;;6.35;2.63;;;;;;;10.33;55.44;99467.81;4931905;29;20096;-73
2022/04/21 10:39:33;;;;;;;9.18;4.18;;;;;;;10.29;55.54;99464.81;4912779;29;20056;-72
2022/04/21 10:42:14;;;;;;;7.15;2.80;;;;;;;10.32;55.45;99463.44;4916444;29;20146;-72
2022/04/21 10:44:42;;;;;;;11.73;3.30;;;;;;;10.36;55.36;99465.34;4933197;29;20535;-75
2022/04/21 10:47:31;;;;;;;7.85;3.20;;;;;;;10.38;55.12;99484.22;4924272;29;20075;-73
2022/04/21 10:50:00;;;;;;;7.95;3.28;;;;;;;10.32;55.26;99463.44;4916852;29;20063;-73
2022/04/21 10:58:50;;;;;;;7.28;2.90;;;;;;;10.35;55.29;99490.22;4931513;29;20056;-76
2022/04/21 11:01:28;;;;;;;8.45;3.05;;;;;;;10.39;55.22;99485.84;4893524;29;20048;-76
2022/04/21 11:04:19;;;;;;;7.60;2.85;;;;;;;10.26;55.55;99487.25;4892202;29;20059;-76
2022/04/21 11:06:47;;;;;;;11.43;3.42;;;;;;;10.23;55.67;99495.22;4903461;29;20070;-77
2022/04/21 11:09:53;;;;;;;11.63;3.03;;;;;;;10.25;55.65;99506.69;4909661;29;20055;-77
2022/04/21 11:12:49;;;;;;;13.47;6.47;;;;;;;10.19;55.93;99508.59;4927484;29;20432;-74
2022/04/21 11:15:42;;;;;;;9.55;3.55;;;;;;;10.19;55.83;99503.13;4934861;29;20311;-73
2022/04/21 11:18:10;;;;;;;23.48;14.52;;;;;;;10.09;55.69;99501.28;4916667;29;20618;-73
2022/04/21 11:20:37;;;;;;;10.15;4.70;;;;;;;10.26;55.74;99508.31;4929988;29;20071;-75
2022/04/21 11:23:06;;;;;;;9.00;3.90;;;;;;;10.25;55.77;99525.81;4911838;29;20059;-75
2022/04/21 11:25:33;;;;;;;9.55;3.67;;;;;;;10.12;55.88;99513.53;4932092;29;20641;-76
2022/04/21 11:27:59;;;;;;;7.73;2.90;;;;;;;10.13;56.13;99520.63;4912932;29;20073;-76
2022/04/21 11:30:25;;;;;;;7.78;2.90;;;;;;;10.24;56.15;99508.56;4932235;29;20155;-76
2022/04/21 11:32:52;;;;;;;11.00;3.53;;;;;;;10.30;55.77;99526.59;4916050;29;20056;-74
2022/04/21 11:35:21;;;;;;;7.72;2.75;;;;;;;10.30;55.93;99526.59;4931591;29;20075;-75
2022/04/21 11:37:57;;;;;;;7.35;2.88;;;;;;;10.30;56.19;99526.59;4915686;29;20047;-74
2022/04/21 11:40:27;;;;;;;9.18;3.00;;;;;;;10.19;56.48;99528.53;4932143;29;20067;-73
2022/04/21 11:42:56;;;;;;;9.23;3.05;;;;;;;10.24;56.30;99527.69;4928732;29;20063;-74
2022/04/21 11:45:25;;;;;;;9.77;3.45;;;;;;;10.25;56.44;99525.81;4928691;29;20068;-76
2022/04/21 11:47:53;;;;;;;9.65;3.22;;;;;;;10.22;56.47;99527.16;4924330;29;20054;-76
2022/04/21 11:50:21;;;;;;;9.63;3.10;;;;;;;10.16;56.80;99531.03;4934449;29;20055;-76
2022/04/21 11:52:52;;;;;;;11.23;3.45;;;;;;;10.20;56.74;99535.63;4933387;29;20052;-75
2022/04/21 11:55:23;;;;;;;7.53;2.90;;;;;;;10.20;57.13;99543.03;4930055;29;20060;-76
2022/04/21 11:57:50;;;;;;;6.90;2.85;;;;;;;10.24;56.85;99538.63;4915843;29;20056;-74
2022/04/21 12:06:27;;;;;;;8.02;2.85;;;;;;;10.08;57.29;99544.16;4913936;29;20421;-74
2022/04/21 12:08:38;;;;;;;8.73;3.00;;;;;;;10.05;56.87;99520.13;4933775;29;20059;-75
2022/04/21 12:11:09;;;;;;;7.22;3.00;;;;;;;10.20;56.97;99543.03;4932141;29;20064;-76
2022/04/21 12:13:36;;;;;;;8.63;3.00;;;;;;;10.16;56.92;99540.03;4928768;29;20540;-75
2022/04/21 12:16:03;;;;;;;;;;;;;;;10.25;56.83;99536.72;4934726;29;20066;-75
2022/04/21 12:18:45;;;;;;;10.18;3.10;;;;;;;10.19;56.74;99538.66;4934069;29;20037;-76
2022/04/21 12:21:11;;;;;;;12.80;3.67;;;;;;;10.20;56.68;99543.03;4934092;29;20056;-76
2022/04/21 12:23:37;;;;;;;13.25;3.67;;;;;;;10.18;56.70;99550.69;4933215;29;20050;-74
2022/04/21 12:26:06;;;;;;;11.32;3.50;;;;;;;10.21;56.50;99539.19;4942299;29;20059;-76
2022/04/21 12:28:46;;;;;;;8.55;3.30;;;;;;;10.26;56.24;99546.56;4933323;29;20079;-75
2022/04/21 12:31:18;;;;;;;9.38;3.30;;;;;;;10.29;56.23;99551.47;4933563;29;20068;-75